sensor_id;sensor_type;location;lat;lon;timestamp;P1;durP1;ratioP1;P2;durP2;ratioP2
20535;SDS011;10426;49.420;8.390;2023-08-24T00:01:02;6.07;;;3.30;;
20535;SDS011;10426;49.420;8.390;2023-08-24T00:03:29;5.18;;;3.30;;
20535;SDS011;10426;49.420;8.390;2023-08-24T00:05:56;4.45;;;3.00;;
20535;SDS011;10426;49.420;8.390;2023-08-24T00:08:23;6.40;;;3.43;;
20535;SDS011;10426;49.420;8.390;2023-08-24T00:10:49;4.13;;;3.17;;
20535;SDS011;10426;49.420;8.390;2023-08-24T00:13:16;5.15;;;2.97;;
20535;SDS011;10426;49.420;8.390;2023-08-24T00:15:43;5.28;;;3.15;;
20535;SDS011;10426;49.420;8.390;2023-08-24T00:18:12;6.57;;;3.20;;
20535;SDS011;10426;49.420;8.390;2023-08-24T00:20:39;6.68;;;3.28;;
20535;SDS011;10426;49.420;8.390;2023-08-24T00:23:05;5.90;;;3.47;;
20535;SDS011;10426;49.420;8.390;2023-08-24T00:25:32;9.65;;;3.20;;
20535;SDS011;10426;49.420;8.390;2023-08-24T00:27:59;6.95;;;3.50;;
20535;SDS011;10426;49.420;8.390;2023-08-24T00:30:25;6.47;;;3.20;;
20535;SDS011;10426;49.420;8.390;2023-08-24T00:32:52;6.63;;;3.47;;
20535;SDS011;10426;49.420;8.390;2023-08-24T00:35:20;4.10;;;3.15;;
20535;SDS011;10426;49.420;8.390;2023-08-24T00:37:46;5.28;;;3.30;;
20535;SDS011;10426;49.420;8.390;2023-08-24T00:40:13;5.20;;;3.08;;
20535;SDS011;10426;49.420;8.390;2023-08-24T00:42:40;8.23;;;3.20;;
20535;SDS011;10426;49.420;8.390;2023-08-24T00:45:07;5.25;;;3.03;;
20535;SDS011;10426;49.420;8.390;2023-08-24T00:47:34;6.65;;;3.20;;
20535;SDS011;10426;49.420;8.390;2023-08-24T00:50:01;4.95;;;3.10;;
20535;SDS011;10426;49.420;8.390;2023-08-24T00:52:30;5.97;;;3.50;;
20535;SDS011;10426;49.420;8.390;2023-08-24T00:54:57;5.68;;;2.90;;
20535;SDS011;10426;49.420;8.390;2023-08-24T00:57:25;4.60;;;3.20;;
20535;SDS011;10426;49.420;8.390;2023-08-24T00:59:52;5.40;;;3.28;;
20535;SDS011;10426;49.420;8.390;2023-08-24T01:02:18;5.20;;;3.00;;
20535;SDS011;10426;49.420;8.390;2023-08-24T01:04:45;4.95;;;3.10;;
20535;SDS011;10426;49.420;8.390;2023-08-24T01:07:12;5.50;;;3.20;;
20535;SDS011;10426;49.420;8.390;2023-08-24T01:09:41;4.40;;;3.38;;
20535;SDS011;10426;49.420;8.390;2023-08-24T01:12:10;4.20;;;3.20;;
20535;SDS011;10426;49.420;8.390;2023-08-24T01:14:51;8.77;;;2.95;;
20535;SDS011;10426;49.420;8.390;2023-08-24T01:17:21;4.40;;;3.33;;
20535;SDS011;10426;49.420;8.390;2023-08-24T01:19:48;5.70;;;3.10;;
20535;SDS011;10426;49.420;8.390;2023-08-24T01:22:20;5.47;;;2.97;;
20535;SDS011;10426;49.420;8.390;2023-08-24T01:24:53;9.07;;;3.47;;
20535;SDS011;10426;49.420;8.390;2023-08-24T01:27:21;4.30;;;2.80;;
20535;SDS011;10426;49.420;8.390;2023-08-24T01:29:48;5.38;;;3.10;;
20535;SDS011;10426;49.420;8.390;2023-08-24T01:32:15;5.10;;;3.17;;
20535;SDS011;10426;49.420;8.390;2023-08-24T01:34:42;8.45;;;3.50;;
20535;SDS011;10426;49.420;8.390;2023-08-24T01:37:08;4.53;;;3.00;;
20535;SDS011;10426;49.420;8.390;2023-08-24T01:39:38;7.88;;;2.83;;
20535;SDS011;10426;49.420;8.390;2023-08-24T01:42:10;6.25;;;3.20;;
20535;SDS011;10426;49.420;8.390;2023-08-24T01:44:38;3.42;;;3.20;;
20535;SDS011;10426;49.420;8.390;2023-08-24T01:47:06;7.18;;;3.30;;
20535;SDS011;10426;49.420;8.390;2023-08-24T01:49:36;3.50;;;3.10;;
20535;SDS011;10426;49.420;8.390;2023-08-24T01:52:04;3.63;;;3.13;;
20535;SDS011;10426;49.420;8.390;2023-08-24T01:54:31;4.15;;;3.00;;
20535;SDS011;10426;49.420;8.390;2023-08-24T01:56:57;3.78;;;3.08;;
20535;SDS011;10426;49.420;8.390;2023-08-24T01:59:24;3.25;;;2.88;;
20535;SDS011;10426;49.420;8.390;2023-08-24T02:01:52;3.38;;;3.00;;
20535;SDS011;10426;49.420;8.390;2023-08-24T02:04:19;3.40;;;3.10;;
20535;SDS011;10426;49.420;8.390;2023-08-24T02:06:45;3.72;;;3.03;;
20535;SDS011;10426;49.420;8.390;2023-08-24T02:09:12;3.45;;;3.15;;
20535;SDS011;10426;49.420;8.390;2023-08-24T02:11:39;4.00;;;3.20;;
20535;SDS011;10426;49.420;8.390;2023-08-24T02:14:05;6.47;;;3.10;;
20535;SDS011;10426;49.420;8.390;2023-08-24T02:16:32;4.13;;;3.03;;
20535;SDS011;10426;49.420;8.390;2023-08-24T02:19:00;3.20;;;2.90;;
20535;SDS011;10426;49.420;8.390;2023-08-24T02:21:27;4.60;;;3.30;;
20535;SDS011;10426;49.420;8.390;2023-08-24T02:23:53;3.42;;;2.92;;
20535;SDS011;10426;49.420;8.390;2023-08-24T02:26:20;4.88;;;3.10;;
20535;SDS011;10426;49.420;8.390;2023-08-24T02:28:47;4.85;;;3.17;;
20535;SDS011;10426;49.420;8.390;2023-08-24T02:31:14;4.03;;;3.10;;
20535;SDS011;10426;49.420;8.390;2023-08-24T02:33:41;4.10;;;3.40;;
20535;SDS011;10426;49.420;8.390;2023-08-24T02:36:09;3.85;;;3.20;;
20535;SDS011;10426;49.420;8.390;2023-08-24T02:38:36;3.50;;;3.20;;
20535;SDS011;10426;49.420;8.390;2023-08-24T02:41:03;4.13;;;3.30;;
20535;SDS011;10426;49.420;8.390;2023-08-24T02:43:30;4.23;;;3.30;;
20535;SDS011;10426;49.420;8.390;2023-08-24T02:46:00;3.50;;;3.20;;
20535;SDS011;10426;49.420;8.390;2023-08-24T02:48:28;3.60;;;3.30;;
20535;SDS011;10426;49.420;8.390;2023-08-24T02:50:55;4.45;;;3.35;;
20535;SDS011;10426;49.420;8.390;2023-08-24T02:53:23;4.18;;;3.65;;
20535;SDS011;10426;49.420;8.390;2023-08-24T02:55:50;3.30;;;3.00;;
20535;SDS011;10426;49.420;8.390;2023-08-24T02:58:17;5.90;;;3.10;;
20535;SDS011;10426;49.420;8.390;2023-08-24T03:00:44;3.45;;;3.15;;
20535;SDS011;10426;49.420;8.390;2023-08-24T03:03:10;3.67;;;3.30;;
20535;SDS011;10426;49.420;8.390;2023-08-24T03:05:37;5.13;;;3.20;;
20535;SDS011;10426;49.420;8.390;2023-08-24T03:08:04;3.50;;;3.10;;
20535;SDS011;10426;49.420;8.390;2023-08-24T03:10:32;3.67;;;3.30;;
20535;SDS011;10426;49.420;8.390;2023-08-24T03:13:01;3.58;;;3.25;;
20535;SDS011;10426;49.420;8.390;2023-08-24T03:15:29;3.60;;;3.17;;
20535;SDS011;10426;49.420;8.390;2023-08-24T03:17:56;5.78;;;3.50;;
20535;SDS011;10426;49.420;8.390;2023-08-24T03:20:23;3.88;;;3.58;;
20535;SDS011;10426;49.420;8.390;2023-08-24T03:22:49;3.67;;;3.38;;
20535;SDS011;10426;49.420;8.390;2023-08-24T03:25:16;3.83;;;3.33;;
20535;SDS011;10426;49.420;8.390;2023-08-24T03:27:44;4.28;;;3.30;;
20535;SDS011;10426;49.420;8.390;2023-08-24T03:30:11;3.92;;;3.63;;
20535;SDS011;10426;49.420;8.390;2023-08-24T03:32:39;5.10;;;3.33;;
20535;SDS011;10426;49.420;8.390;2023-08-24T03:35:06;3.78;;;3.45;;
20535;SDS011;10426;49.420;8.390;2023-08-24T03:37:32;5.28;;;3.55;;
20535;SDS011;10426;49.420;8.390;2023-08-24T03:39:59;4.72;;;3.45;;
20535;SDS011;10426;49.420;8.390;2023-08-24T03:42:26;4.00;;;3.70;;
20535;SDS011;10426;49.420;8.390;2023-08-24T03:44:54;3.80;;;3.50;;
20535;SDS011;10426;49.420;8.390;2023-08-24T03:47:20;4.63;;;3.28;;
20535;SDS011;10426;49.420;8.390;2023-08-24T03:49:47;5.22;;;3.28;;
20535;SDS011;10426;49.420;8.390;2023-08-24T03:52:13;3.50;;;3.20;;
20535;SDS011;10426;49.420;8.390;2023-08-24T03:54:41;4.45;;;3.40;;
20535;SDS011;10426;49.420;8.390;2023-08-24T03:57:07;4.32;;;3.60;;
20535;SDS011;10426;49.420;8.390;2023-08-24T03:59:34;4.03;;;3.70;;
20535;SDS011;10426;49.420;8.390;2023-08-24T04:02:02;4.13;;;3.30;;
20535;SDS011;10426;49.420;8.390;2023-08-24T04:04:29;3.87;;;3.43;;
20535;SDS011;10426;49.420;8.390;2023-08-24T04:06:56;5.68;;;3.92;;
20535;SDS011;10426;49.420;8.390;2023-08-24T04:09:23;4.32;;;3.92;;
20535;SDS011;10426;49.420;8.390;2023-08-24T04:11:50;5.07;;;3.50;;
20535;SDS011;10426;49.420;8.390;2023-08-24T04:14:16;5.95;;;3.75;;
20535;SDS011;10426;49.420;8.390;2023-08-24T04:16:43;4.97;;;3.50;;
20535;SDS011;10426;49.420;8.390;2023-08-24T04:19:11;5.87;;;3.57;;
20535;SDS011;10426;49.420;8.390;2023-08-24T04:21:38;5.13;;;3.35;;
20535;SDS011;10426;49.420;8.390;2023-08-24T04:24:04;7.28;;;3.70;;
20535;SDS011;10426;49.420;8.390;2023-08-24T04:26:31;5.50;;;3.70;;
20535;SDS011;10426;49.420;8.390;2023-08-24T04:28:58;5.90;;;3.80;;
20535;SDS011;10426;49.420;8.390;2023-08-24T04:31:24;6.32;;;3.33;;
20535;SDS011;10426;49.420;8.390;2023-08-24T04:33:51;6.20;;;3.40;;
20535;SDS011;10426;49.420;8.390;2023-08-24T04:36:19;5.35;;;3.40;;
20535;SDS011;10426;49.420;8.390;2023-08-24T04:38:46;4.47;;;3.67;;
20535;SDS011;10426;49.420;8.390;2023-08-24T04:41:12;4.63;;;3.50;;
20535;SDS011;10426;49.420;8.390;2023-08-24T04:43:39;5.60;;;3.60;;
20535;SDS011;10426;49.420;8.390;2023-08-24T04:46:05;5.15;;;3.72;;
20535;SDS011;10426;49.420;8.390;2023-08-24T04:48:32;3.97;;;3.60;;
20535;SDS011;10426;49.420;8.390;2023-08-24T04:50:59;5.60;;;3.40;;
20535;SDS011;10426;49.420;8.390;2023-08-24T04:53:28;7.05;;;3.78;;
20535;SDS011;10426;49.420;8.390;2023-08-24T04:55:54;5.05;;;3.38;;
20535;SDS011;10426;49.420;8.390;2023-08-24T04:58:21;6.40;;;4.03;;
20535;SDS011;10426;49.420;8.390;2023-08-24T05:00:48;4.67;;;3.47;;
20535;SDS011;10426;49.420;8.390;2023-08-24T05:03:15;4.90;;;3.75;;
20535;SDS011;10426;49.420;8.390;2023-08-24T05:05:43;4.43;;;3.10;;
20535;SDS011;10426;49.420;8.390;2023-08-24T05:08:09;4.78;;;3.22;;
20535;SDS011;10426;49.420;8.390;2023-08-24T05:10:37;4.05;;;3.55;;
20535;SDS011;10426;49.420;8.390;2023-08-24T05:13:04;3.95;;;3.35;;
20535;SDS011;10426;49.420;8.390;2023-08-24T05:15:31;4.07;;;3.17;;
20535;SDS011;10426;49.420;8.390;2023-08-24T05:17:57;5.55;;;3.40;;
20535;SDS011;10426;49.420;8.390;2023-08-24T05:20:25;5.65;;;3.35;;
20535;SDS011;10426;49.420;8.390;2023-08-24T05:22:52;5.55;;;3.17;;
20535;SDS011;10426;49.420;8.390;2023-08-24T05:25:20;5.10;;;3.13;;
20535;SDS011;10426;49.420;8.390;2023-08-24T05:27:48;4.82;;;3.50;;
20535;SDS011;10426;49.420;8.390;2023-08-24T05:30:14;6.22;;;3.60;;
20535;SDS011;10426;49.420;8.390;2023-08-24T05:32:41;5.07;;;3.63;;
20535;SDS011;10426;49.420;8.390;2023-08-24T05:35:08;5.53;;;3.40;;
20535;SDS011;10426;49.420;8.390;2023-08-24T05:37:35;4.38;;;3.50;;
20535;SDS011;10426;49.420;8.390;2023-08-24T05:40:01;5.88;;;3.55;;
20535;SDS011;10426;49.420;8.390;2023-08-24T05:42:28;6.68;;;3.40;;
20535;SDS011;10426;49.420;8.390;2023-08-24T05:44:57;5.55;;;3.50;;
20535;SDS011;10426;49.420;8.390;2023-08-24T05:47:23;6.38;;;3.90;;
20535;SDS011;10426;49.420;8.390;2023-08-24T05:49:50;4.82;;;3.70;;
20535;SDS011;10426;49.420;8.390;2023-08-24T05:52:16;5.13;;;3.70;;
20535;SDS011;10426;49.420;8.390;2023-08-24T05:54:49;4.72;;;3.20;;
20535;SDS011;10426;49.420;8.390;2023-08-24T05:57:16;5.25;;;3.72;;
20535;SDS011;10426;49.420;8.390;2023-08-24T05:59:42;4.80;;;3.78;;
20535;SDS011;10426;49.420;8.390;2023-08-24T06:02:10;5.80;;;3.70;;
20535;SDS011;10426;49.420;8.390;2023-08-24T06:04:37;8.05;;;3.50;;
20535;SDS011;10426;49.420;8.390;2023-08-24T06:07:03;4.43;;;3.40;;
20535;SDS011;10426;49.420;8.390;2023-08-24T06:09:30;10.60;;;3.63;;
20535;SDS011;10426;49.420;8.390;2023-08-24T06:11:58;5.50;;;3.20;;
20535;SDS011;10426;49.420;8.390;2023-08-24T06:14:24;7.47;;;3.10;;
20535;SDS011;10426;49.420;8.390;2023-08-24T06:16:51;3.80;;;3.42;;
20535;SDS011;10426;49.420;8.390;2023-08-24T06:19:19;4.85;;;3.10;;
20535;SDS011;10426;49.420;8.390;2023-08-24T06:21:46;7.57;;;3.10;;
20535;SDS011;10426;49.420;8.390;2023-08-24T06:24:13;4.20;;;3.22;;
20535;SDS011;10426;49.420;8.390;2023-08-24T06:26:39;7.10;;;3.40;;
20535;SDS011;10426;49.420;8.390;2023-08-24T06:29:06;5.68;;;3.30;;
20535;SDS011;10426;49.420;8.390;2023-08-24T06:31:33;4.18;;;3.10;;
20535;SDS011;10426;49.420;8.390;2023-08-24T06:33:59;4.47;;;3.17;;
20535;SDS011;10426;49.420;8.390;2023-08-24T06:36:27;6.95;;;3.58;;
20535;SDS011;10426;49.420;8.390;2023-08-24T06:38:55;7.60;;;3.60;;
20535;SDS011;10426;49.420;8.390;2023-08-24T06:41:21;4.55;;;3.60;;
20535;SDS011;10426;49.420;8.390;2023-08-24T06:43:48;6.50;;;3.70;;
20535;SDS011;10426;49.420;8.390;2023-08-24T06:46:15;4.82;;;3.17;;
20535;SDS011;10426;49.420;8.390;2023-08-24T06:48:41;4.68;;;3.60;;
20535;SDS011;10426;49.420;8.390;2023-08-24T06:51:09;5.57;;;3.80;;
20535;SDS011;10426;49.420;8.390;2023-08-24T06:53:37;7.45;;;3.72;;
20535;SDS011;10426;49.420;8.390;2023-08-24T06:56:04;6.68;;;3.80;;
20535;SDS011;10426;49.420;8.390;2023-08-24T06:58:30;5.55;;;3.85;;
20535;SDS011;10426;49.420;8.390;2023-08-24T07:00:57;6.97;;;4.00;;
20535;SDS011;10426;49.420;8.390;2023-08-24T07:03:23;4.82;;;3.92;;
20535;SDS011;10426;49.420;8.390;2023-08-24T07:05:50;5.78;;;3.70;;
20535;SDS011;10426;49.420;8.390;2023-08-24T07:08:17;4.00;;;3.70;;
20535;SDS011;10426;49.420;8.390;2023-08-24T07:10:45;6.30;;;4.00;;
20535;SDS011;10426;49.420;8.390;2023-08-24T07:13:12;5.95;;;4.22;;
20535;SDS011;10426;49.420;8.390;2023-08-24T07:15:38;4.55;;;3.60;;
20535;SDS011;10426;49.420;8.390;2023-08-24T07:18:05;6.53;;;3.90;;
20535;SDS011;10426;49.420;8.390;2023-08-24T07:20:33;4.30;;;3.92;;
20535;SDS011;10426;49.420;8.390;2023-08-24T07:22:59;7.38;;;4.22;;
20535;SDS011;10426;49.420;8.390;2023-08-24T07:25:26;7.57;;;4.00;;
20535;SDS011;10426;49.420;8.390;2023-08-24T07:27:55;4.88;;;3.85;;
20535;SDS011;10426;49.420;8.390;2023-08-24T07:30:24;5.97;;;4.53;;
20535;SDS011;10426;49.420;8.390;2023-08-24T07:32:50;5.38;;;4.60;;
20535;SDS011;10426;49.420;8.390;2023-08-24T07:35:17;6.20;;;4.43;;
20535;SDS011;10426;49.420;8.390;2023-08-24T07:37:44;4.77;;;4.37;;
20535;SDS011;10426;49.420;8.390;2023-08-24T07:40:13;5.35;;;4.63;;
20535;SDS011;10426;49.420;8.390;2023-08-24T07:42:43;4.93;;;4.53;;
20535;SDS011;10426;49.420;8.390;2023-08-24T07:45:11;4.35;;;3.90;;
20535;SDS011;10426;49.420;8.390;2023-08-24T07:47:39;7.35;;;4.25;;
20535;SDS011;10426;49.420;8.390;2023-08-24T07:50:06;4.80;;;4.10;;
20535;SDS011;10426;49.420;8.390;2023-08-24T07:52:33;6.65;;;3.78;;
20535;SDS011;10426;49.420;8.390;2023-08-24T07:55:00;6.45;;;4.07;;
20535;SDS011;10426;49.420;8.390;2023-08-24T07:57:29;7.10;;;4.10;;
20535;SDS011;10426;49.420;8.390;2023-08-24T07:59:57;8.20;;;4.07;;
20535;SDS011;10426;49.420;8.390;2023-08-24T08:02:24;7.50;;;4.05;;
20535;SDS011;10426;49.420;8.390;2023-08-24T08:04:51;5.63;;;4.28;;
20535;SDS011;10426;49.420;8.390;2023-08-24T08:07:18;4.60;;;3.80;;
20535;SDS011;10426;49.420;8.390;2023-08-24T08:09:45;6.20;;;3.90;;
20535;SDS011;10426;49.420;8.390;2023-08-24T08:12:11;3.97;;;3.40;;
20535;SDS011;10426;49.420;8.390;2023-08-24T08:14:38;6.22;;;3.50;;
20535;SDS011;10426;49.420;8.390;2023-08-24T08:17:05;4.45;;;3.30;;
20535;SDS011;10426;49.420;8.390;2023-08-24T08:19:32;3.85;;;3.30;;
20535;SDS011;10426;49.420;8.390;2023-08-24T08:22:01;5.90;;;3.40;;
20535;SDS011;10426;49.420;8.390;2023-08-24T08:24:27;7.18;;;3.55;;
20535;SDS011;10426;49.420;8.390;2023-08-24T08:26:54;4.75;;;3.10;;
20535;SDS011;10426;49.420;8.390;2023-08-24T08:29:21;3.72;;;3.42;;
20535;SDS011;10426;49.420;8.390;2023-08-24T08:31:47;3.50;;;3.00;;
20535;SDS011;10426;49.420;8.390;2023-08-24T08:34:14;3.60;;;3.30;;
20535;SDS011;10426;49.420;8.390;2023-08-24T08:36:42;7.05;;;3.38;;
20535;SDS011;10426;49.420;8.390;2023-08-24T08:39:09;3.85;;;3.53;;
20535;SDS011;10426;49.420;8.390;2023-08-24T08:41:38;6.03;;;3.67;;
20535;SDS011;10426;49.420;8.390;2023-08-24T08:44:06;3.80;;;3.50;;
20535;SDS011;10426;49.420;8.390;2023-08-24T08:46:33;7.00;;;3.30;;
20535;SDS011;10426;49.420;8.390;2023-08-24T08:48:59;3.87;;;3.40;;
20535;SDS011;10426;49.420;8.390;2023-08-24T08:51:26;7.13;;;3.58;;
20535;SDS011;10426;49.420;8.390;2023-08-24T08:53:55;4.63;;;3.20;;
20535;SDS011;10426;49.420;8.390;2023-08-24T08:56:21;6.80;;;3.53;;
20535;SDS011;10426;49.420;8.390;2023-08-24T08:58:48;4.75;;;3.10;;
20535;SDS011;10426;49.420;8.390;2023-08-24T09:01:15;6.28;;;3.50;;
20535;SDS011;10426;49.420;8.390;2023-08-24T09:03:42;4.63;;;3.40;;
20535;SDS011;10426;49.420;8.390;2023-08-24T09:06:10;4.20;;;3.22;;
20535;SDS011;10426;49.420;8.390;2023-08-24T09:08:36;4.90;;;3.30;;
20535;SDS011;10426;49.420;8.390;2023-08-24T09:11:05;8.95;;;3.78;;
20535;SDS011;10426;49.420;8.390;2023-08-24T09:13:33;5.18;;;3.08;;
20535;SDS011;10426;49.420;8.390;2023-08-24T09:16:03;4.38;;;2.92;;
20535;SDS011;10426;49.420;8.390;2023-08-24T09:18:37;3.97;;;3.13;;
20535;SDS011;10426;49.420;8.390;2023-08-24T09:21:10;5.25;;;3.30;;
20535;SDS011;10426;49.420;8.390;2023-08-24T09:23:37;6.53;;;2.78;;
20535;SDS011;10426;49.420;8.390;2023-08-24T09:26:05;5.88;;;2.88;;
20535;SDS011;10426;49.420;8.390;2023-08-24T09:28:32;4.90;;;2.85;;
20535;SDS011;10426;49.420;8.390;2023-08-24T09:30:59;6.40;;;2.67;;
20535;SDS011;10426;49.420;8.390;2023-08-24T09:33:26;3.65;;;2.42;;
20535;SDS011;10426;49.420;8.390;2023-08-24T09:35:53;5.78;;;2.50;;
20535;SDS011;10426;49.420;8.390;2023-08-24T09:38:21;2.40;;;2.20;;
20535;SDS011;10426;49.420;8.390;2023-08-24T09:40:50;6.05;;;2.38;;
20535;SDS011;10426;49.420;8.390;2023-08-24T09:43:18;4.35;;;2.42;;
20535;SDS011;10426;49.420;8.390;2023-08-24T09:45:48;4.20;;;2.20;;
20535;SDS011;10426;49.420;8.390;2023-08-24T09:48:15;3.33;;;2.10;;
20535;SDS011;10426;49.420;8.390;2023-08-24T09:50:42;4.47;;;2.30;;
20535;SDS011;10426;49.420;8.390;2023-08-24T09:53:09;2.40;;;2.22;;
20535;SDS011;10426;49.420;8.390;2023-08-24T09:55:39;2.45;;;2.20;;
20535;SDS011;10426;49.420;8.390;2023-08-24T09:58:06;2.20;;;2.00;;
20535;SDS011;10426;49.420;8.390;2023-08-24T10:00:36;2.88;;;2.30;;
20535;SDS011;10426;49.420;8.390;2023-08-24T10:03:04;5.07;;;2.35;;
20535;SDS011;10426;49.420;8.390;2023-08-24T10:05:31;2.40;;;2.00;;
20535;SDS011;10426;49.420;8.390;2023-08-24T10:07:58;4.17;;;2.20;;
20535;SDS011;10426;49.420;8.390;2023-08-24T10:10:27;3.08;;;2.20;;
20535;SDS011;10426;49.420;8.390;2023-08-24T10:12:56;5.00;;;2.60;;
20535;SDS011;10426;49.420;8.390;2023-08-24T10:15:24;3.97;;;2.10;;
20535;SDS011;10426;49.420;8.390;2023-08-24T10:17:53;2.22;;;1.98;;
20535;SDS011;10426;49.420;8.390;2023-08-24T10:20:21;2.30;;;1.90;;
20535;SDS011;10426;49.420;8.390;2023-08-24T10:22:48;3.67;;;2.10;;
20535;SDS011;10426;49.420;8.390;2023-08-24T10:25:16;4.38;;;2.00;;
20535;SDS011;10426;49.420;8.390;2023-08-24T10:27:42;3.33;;;2.15;;
20535;SDS011;10426;49.420;8.390;2023-08-24T10:30:11;2.30;;;2.10;;
20535;SDS011;10426;49.420;8.390;2023-08-24T10:32:38;2.17;;;1.90;;
20535;SDS011;10426;49.420;8.390;2023-08-24T10:35:07;3.90;;;2.30;;
20535;SDS011;10426;49.420;8.390;2023-08-24T10:37:34;3.08;;;2.10;;
20535;SDS011;10426;49.420;8.390;2023-08-24T10:40:01;5.07;;;2.03;;
20535;SDS011;10426;49.420;8.390;2023-08-24T10:42:30;2.30;;;1.95;;
20535;SDS011;10426;49.420;8.390;2023-08-24T10:45:09;3.75;;;2.70;;
20535;SDS011;10426;49.420;8.390;2023-08-24T10:47:43;4.95;;;2.80;;
20535;SDS011;10426;49.420;8.390;2023-08-24T10:50:12;2.33;;;2.13;;
20535;SDS011;10426;49.420;8.390;2023-08-24T10:52:40;2.63;;;2.30;;
20535;SDS011;10426;49.420;8.390;2023-08-24T10:55:21;2.53;;;1.83;;
20535;SDS011;10426;49.420;8.390;2023-08-24T10:57:54;2.30;;;2.07;;
20535;SDS011;10426;49.420;8.390;2023-08-24T11:00:21;4.60;;;2.10;;
20535;SDS011;10426;49.420;8.390;2023-08-24T11:02:49;6.63;;;2.10;;
20535;SDS011;10426;49.420;8.390;2023-08-24T11:05:18;4.68;;;2.20;;
20535;SDS011;10426;49.420;8.390;2023-08-24T11:07:51;3.67;;;2.55;;
20535;SDS011;10426;49.420;8.390;2023-08-24T11:10:18;2.83;;;2.20;;
20535;SDS011;10426;49.420;8.390;2023-08-24T11:15:30;3.25;;;1.80;;
20535;SDS011;10426;49.420;8.390;2023-08-24T11:18:10;2.55;;;2.03;;
20535;SDS011;10426;49.420;8.390;2023-08-24T11:20:38;2.78;;;2.45;;
20535;SDS011;10426;49.420;8.390;2023-08-24T11:23:06;3.10;;;2.30;;
20535;SDS011;10426;49.420;8.390;2023-08-24T11:25:35;2.10;;;2.00;;
20535;SDS011;10426;49.420;8.390;2023-08-24T11:28:02;2.60;;;2.30;;
20535;SDS011;10426;49.420;8.390;2023-08-24T11:30:29;2.30;;;2.10;;
20535;SDS011;10426;49.420;8.390;2023-08-24T11:33:00;2.20;;;2.00;;
20535;SDS011;10426;49.420;8.390;2023-08-24T11:35:27;4.82;;;1.90;;
20535;SDS011;10426;49.420;8.390;2023-08-24T11:37:56;5.72;;;2.97;;
20535;SDS011;10426;49.420;8.390;2023-08-24T11:40:22;5.93;;;2.85;;
20535;SDS011;10426;49.420;8.390;2023-08-24T11:42:53;3.17;;;2.58;;
20535;SDS011;10426;49.420;8.390;2023-08-24T11:45:20;5.35;;;2.85;;
20535;SDS011;10426;49.420;8.390;2023-08-24T11:47:46;3.35;;;2.30;;
20535;SDS011;10426;49.420;8.390;2023-08-24T11:50:13;2.83;;;2.20;;
20535;SDS011;10426;49.420;8.390;2023-08-24T11:52:40;2.60;;;2.40;;
20535;SDS011;10426;49.420;8.390;2023-08-24T11:55:08;4.43;;;2.40;;
20535;SDS011;10426;49.420;8.390;2023-08-24T11:57:35;4.33;;;2.17;;
20535;SDS011;10426;49.420;8.390;2023-08-24T12:00:01;3.10;;;2.15;;
20535;SDS011;10426;49.420;8.390;2023-08-24T12:02:29;6.15;;;2.63;;
20535;SDS011;10426;49.420;8.390;2023-08-24T12:04:57;3.53;;;3.22;;
20535;SDS011;10426;49.420;8.390;2023-08-24T12:07:24;8.18;;;3.78;;
20535;SDS011;10426;49.420;8.390;2023-08-24T12:09:51;2.30;;;2.10;;
20535;SDS011;10426;49.420;8.390;2023-08-24T12:12:21;5.60;;;2.23;;
20535;SDS011;10426;49.420;8.390;2023-08-24T12:14:49;2.10;;;2.00;;
20535;SDS011;10426;49.420;8.390;2023-08-24T12:17:16;2.40;;;2.20;;
20535;SDS011;10426;49.420;8.390;2023-08-24T12:19:43;5.88;;;2.50;;
20535;SDS011;10426;49.420;8.390;2023-08-24T12:22:12;4.10;;;2.13;;
20535;SDS011;10426;49.420;8.390;2023-08-24T12:24:42;3.17;;;2.20;;
20535;SDS011;10426;49.420;8.390;2023-08-24T12:27:16;4.05;;;2.30;;
20535;SDS011;10426;49.420;8.390;2023-08-24T12:29:45;3.50;;;2.33;;
20535;SDS011;10426;49.420;8.390;2023-08-24T12:32:12;4.00;;;2.42;;
20535;SDS011;10426;49.420;8.390;2023-08-24T12:34:40;2.60;;;2.40;;
20535;SDS011;10426;49.420;8.390;2023-08-24T12:37:08;2.20;;;2.10;;
20535;SDS011;10426;49.420;8.390;2023-08-24T12:39:35;3.10;;;2.40;;
20535;SDS011;10426;49.420;8.390;2023-08-24T12:42:01;2.78;;;2.58;;
20535;SDS011;10426;49.420;8.390;2023-08-24T12:44:28;3.50;;;2.50;;
20535;SDS011;10426;49.420;8.390;2023-08-24T12:46:56;3.30;;;2.20;;
20535;SDS011;10426;49.420;8.390;2023-08-24T12:49:23;2.60;;;2.28;;
20535;SDS011;10426;49.420;8.390;2023-08-24T12:51:49;3.58;;;2.30;;
20535;SDS011;10426;49.420;8.390;2023-08-24T12:54:16;2.97;;;2.30;;
20535;SDS011;10426;49.420;8.390;2023-08-24T12:56:43;2.85;;;2.33;;
20535;SDS011;10426;49.420;8.390;2023-08-24T12:59:09;3.40;;;2.28;;
20535;SDS011;10426;49.420;8.390;2023-08-24T13:01:37;4.82;;;2.67;;
20535;SDS011;10426;49.420;8.390;2023-08-24T13:04:05;4.10;;;2.40;;
20535;SDS011;10426;49.420;8.390;2023-08-24T13:06:32;2.85;;;2.60;;
20535;SDS011;10426;49.420;8.390;2023-08-24T13:08:59;3.33;;;2.80;;
20535;SDS011;10426;49.420;8.390;2023-08-24T13:11:25;9.98;;;2.92;;
20535;SDS011;10426;49.420;8.390;2023-08-24T13:13:52;4.15;;;2.55;;
20535;SDS011;10426;49.420;8.390;2023-08-24T13:16:18;5.03;;;2.50;;
20535;SDS011;10426;49.420;8.390;2023-08-24T13:18:45;2.38;;;2.20;;
20535;SDS011;10426;49.420;8.390;2023-08-24T13:21:13;2.90;;;2.40;;
20535;SDS011;10426;49.420;8.390;2023-08-24T13:23:39;2.90;;;2.10;;
20535;SDS011;10426;49.420;8.390;2023-08-24T13:26:09;5.25;;;2.80;;
20535;SDS011;10426;49.420;8.390;2023-08-24T13:28:43;3.40;;;2.30;;
20535;SDS011;10426;49.420;8.390;2023-08-24T13:31:09;4.78;;;2.40;;
20535;SDS011;10426;49.420;8.390;2023-08-24T13:33:36;3.40;;;2.40;;
20535;SDS011;10426;49.420;8.390;2023-08-24T13:36:02;5.28;;;2.30;;
20535;SDS011;10426;49.420;8.390;2023-08-24T13:38:31;2.75;;;2.40;;
20535;SDS011;10426;49.420;8.390;2023-08-24T13:40:57;4.72;;;2.70;;
20535;SDS011;10426;49.420;8.390;2023-08-24T13:43:24;5.30;;;3.13;;
20535;SDS011;10426;49.420;8.390;2023-08-24T13:45:51;3.75;;;3.03;;
20535;SDS011;10426;49.420;8.390;2023-08-24T13:48:17;3.60;;;2.22;;
20535;SDS011;10426;49.420;8.390;2023-08-24T13:50:49;3.63;;;2.40;;
20535;SDS011;10426;49.420;8.390;2023-08-24T13:53:15;3.65;;;2.30;;
20535;SDS011;10426;49.420;8.390;2023-08-24T13:55:43;4.03;;;2.75;;
20535;SDS011;10426;49.420;8.390;2023-08-24T13:58:10;2.93;;;2.67;;
20535;SDS011;10426;49.420;8.390;2023-08-24T14:00:37;3.70;;;2.40;;
20535;SDS011;10426;49.420;8.390;2023-08-24T14:03:04;3.17;;;2.47;;
20535;SDS011;10426;49.420;8.390;2023-08-24T14:05:30;4.60;;;2.47;;
20535;SDS011;10426;49.420;8.390;2023-08-24T14:07:57;7.20;;;2.80;;
20535;SDS011;10426;49.420;8.390;2023-08-24T14:10:24;6.73;;;2.53;;
20535;SDS011;10426;49.420;8.390;2023-08-24T14:12:52;2.80;;;2.60;;
20535;SDS011;10426;49.420;8.390;2023-08-24T14:15:18;5.05;;;2.47;;
20535;SDS011;10426;49.420;8.390;2023-08-24T14:17:45;6.57;;;2.58;;
20535;SDS011;10426;49.420;8.390;2023-08-24T14:20:11;4.72;;;2.50;;
20535;SDS011;10426;49.420;8.390;2023-08-24T14:22:39;10.80;;;2.83;;
20535;SDS011;10426;49.420;8.390;2023-08-24T14:25:06;6.30;;;3.08;;
20535;SDS011;10426;49.420;8.390;2023-08-24T14:27:35;6.30;;;2.75;;
20535;SDS011;10426;49.420;8.390;2023-08-24T14:30:04;3.97;;;2.55;;
20535;SDS011;10426;49.420;8.390;2023-08-24T14:32:31;4.60;;;2.80;;
20535;SDS011;10426;49.420;8.390;2023-08-24T14:34:58;4.82;;;2.85;;
20535;SDS011;10426;49.420;8.390;2023-08-24T14:37:25;4.23;;;2.90;;
20535;SDS011;10426;49.420;8.390;2023-08-24T14:39:52;7.38;;;4.15;;
20535;SDS011;10426;49.420;8.390;2023-08-24T14:42:18;4.35;;;3.95;;
20535;SDS011;10426;49.420;8.390;2023-08-24T14:44:45;4.95;;;3.70;;
20535;SDS011;10426;49.420;8.390;2023-08-24T14:47:13;5.67;;;3.40;;
20535;SDS011;10426;49.420;8.390;2023-08-24T14:49:40;4.95;;;4.45;;
20535;SDS011;10426;49.420;8.390;2023-08-24T14:52:06;7.73;;;3.70;;